sensor_id;sensor_type;location;lat;lon;timestamp;pressure;altitude;pressure_sealevel;temperature;humidity
75414;BME280;64758;52.122;5.404;2024-03-23T00:53:14;101212.16;;;7.09;100.00
75414;BME280;64758;52.122;5.404;2024-03-23T00:55:41;101203.56;;;7.07;100.00
75414;BME280;64758;52.122;5.404;2024-03-23T00:58:07;101205.53;;;7.05;100.00
75414;BME280;64758;52.122;5.404;2024-03-23T01:00:32;101213.47;;;7.05;100.00
75414;BME280;64758;52.122;5.404;2024-03-23T01:02:58;101212.63;;;7.05;100.00
75414;BME280;64758;52.122;5.404;2024-03-23T01:05:24;101214.28;;;7.06;100.00
75414;BME280;64758;52.122;5.404;2024-03-23T01:07:49;101215.94;;;7.07;100.00
75414;BME280;64758;52.122;5.404;2024-03-23T01:10:15;101210.66;;;7.07;100.00
75414;BME280;64758;52.122;5.404;2024-03-23T01:12:41;101209.66;;;7.08;100.00
75414;BME280;64758;52.122;5.404;2024-03-23T01:15:06;101200.09;;;7.07;100.00
75414;BME280;64758;52.122;5.404;2024-03-23T01:17:32;101195.13;;;7.04;100.00
75414;BME280;64758;52.122;5.404;2024-03-23T01:19:58;101188.72;;;7.06;100.00
75414;BME280;64758;52.122;5.404;2024-03-23T01:22:23;101192.84;;;7.09;100.00
75414;BME280;64758;52.122;5.404;2024-03-23T01:24:49;101184.91;;;7.09;100.00
75414;BME280;64758;52.122;5.404;2024-03-23T01:27:14;101187.56;;;7.09;100.00
75414;BME280;64758;52.122;5.404;2024-03-23T01:29:40;101183.25;;;7.08;100.00
75414;BME280;64758;52.122;5.404;2024-03-23T01:32:06;101178.28;;;7.05;100.00
75414;BME280;64758;52.122;5.404;2024-03-23T01:34:32;101172.34;;;7.03;100.00
75414;BME280;64758;52.122;5.404;2024-03-23T01:36:58;101169.00;;;7.01;100.00
75414;BME280;64758;52.122;5.404;2024-03-23T01:39:24;101167.34;;;7.00;100.00
75414;BME280;64758;52.122;5.404;2024-03-23T01:41:50;101155.75;;;6.93;100.00
75414;BME280;64758;52.122;5.404;2024-03-23T01:44:16;101154.41;;;6.89;100.00
75414;BME280;64758;52.122;5.404;2024-03-23T01:46:43;101148.63;;;6.85;100.00
75414;BME280;64758;52.122;5.404;2024-03-23T01:49:10;101145.75;;;6.79;100.00
75414;BME280;64758;52.122;5.404;2024-03-23T01:51:36;101150.69;;;6.74;100.00
75414;BME280;64758;52.122;5.404;2024-03-23T01:54:03;101156.44;;;6.69;100.00
75414;BME280;64758;52.122;5.404;2024-03-23T01:56:33;101145.81;;;6.61;100.00
75414;BME280;64758;52.122;5.404;2024-03-23T01:59:05;101149.88;;;6.56;100.00
75414;BME280;64758;52.122;5.404;2024-03-23T02:01:32;101154.78;;;6.51;100.00
75414;BME280;64758;52.122;5.404;2024-03-23T02:03:58;101143.03;;;6.45;100.00
75414;BME280;64758;52.122;5.404;2024-03-23T02:06:27;101151.69;;;6.38;100.00
75414;BME280;64758;52.122;5.404;2024-03-23T02:08:53;101141.91;;;6.30;100.00
75414;BME280;64758;52.122;5.404;2024-03-23T02:11:19;101144.88;;;6.28;100.00
75414;BME280;64758;52.122;5.404;2024-03-23T02:13:45;101142.81;;;6.22;100.00
75414;BME280;64758;52.122;5.404;2024-03-23T02:16:11;101143.44;;;6.16;100.00
75414;BME280;64758;52.122;5.404;2024-03-23T02:18:36;101141.25;;;6.11;100.00
75414;BME280;64758;52.122;5.404;2024-03-23T02:21:02;101139.91;;;6.07;100.00
75414;BME280;64758;52.122;5.404;2024-03-23T02:23:28;101142.47;;;5.99;100.00
75414;BME280;64758;52.122;5.404;2024-03-23T02:25:54;101144.53;;;5.96;100.00
75414;BME280;64758;52.122;5.404;2024-03-23T02:28:20;101143.34;;;5.90;100.00
75414;BME280;64758;52.122;5.404;2024-03-23T02:30:46;101128.81;;;5.86;100.00
75414;BME280;64758;52.122;5.404;2024-03-23T02:33:11;101125.09;;;5.79;100.00
75414;BME280;64758;52.122;5.404;2024-03-23T02:35:37;101120.91;;;5.77;100.00
75414;BME280;64758;52.122;5.404;2024-03-23T02:38:03;101127.31;;;5.74;100.00
75414;BME280;64758;52.122;5.404;2024-03-23T02:40:28;101127.63;;;5.71;100.00
75414;BME280;64758;52.122;5.404;2024-03-23T02:42:54;101135.53;;;5.71;100.00
75414;BME280;64758;52.122;5.404;2024-03-23T02:45:20;101125.28;;;5.68;100.00
75414;BME280;64758;52.122;5.404;2024-03-23T02:47:46;101125.41;;;5.67;100.00
75414;BME280;64758;52.122;5.404;2024-03-23T02:50:11;101121.28;;;5.64;100.00
75414;BME280;64758;52.122;5.404;2024-03-23T02:52:37;101130.47;;;5.60;100.00
75414;BME280;64758;52.122;5.404;2024-03-23T02:55:03;101133.53;;;5.56;100.00
75414;BME280;64758;52.122;5.404;2024-03-23T02:57:29;101139.94;;;5.53;100.00
75414;BME280;64758;52.122;5.404;2024-03-23T02:59:54;101131.63;;;5.48;100.00
75414;BME280;64758;52.122;5.404;2024-03-23T03:02:20;101128.31;;;5.46;100.00
75414;BME280;64758;52.122;5.404;2024-03-23T03:04:47;101128.63;;;5.43;100.00
75414;BME280;64758;52.122;5.404;2024-03-23T03:07:13;101126.94;;;5.42;100.00
75414;BME280;64758;52.122;5.404;2024-03-23T03:09:39;101123.09;;;5.37;100.00
75414;BME280;64758;52.122;5.404;2024-03-23T03:12:05;101134.88;;;5.33;100.00
75414;BME280;64758;52.122;5.404;2024-03-23T03:14:31;101127.28;;;5.30;100.00
75414;BME280;64758;52.122;5.404;2024-03-23T03:16:57;101129.09;;;5.29;100.00
75414;BME280;64758;52.122;5.404;2024-03-23T03:19:23;101126.06;;;5.24;100.00
75414;BME280;64758;52.122;5.404;2024-03-23T03:21:49;101124.00;;;5.18;100.00
75414;BME280;64758;52.122;5.404;2024-03-23T03:24:15;101127.06;;;5.14;100.00
75414;BME280;64758;52.122;5.404;2024-03-23T03:26:41;101124.88;;;5.09;100.00
75414;BME280;64758;52.122;5.404;2024-03-23T03:29:06;101131.13;;;5.08;100.00
75414;BME280;64758;52.122;5.404;2024-03-23T03:31:32;101129.06;;;5.02;100.00
75414;BME280;64758;52.122;5.404;2024-03-23T03:33:57;101126.03;;;4.97;100.00
75414;BME280;64758;52.122;5.404;2024-03-23T03:36:23;101128.94;;;4.95;100.00
75414;BME280;64758;52.122;5.404;2024-03-23T03:38:48;101123.00;;;4.93;100.00
75414;BME280;64758;52.122;5.404;2024-03-23T03:41:14;101114.84;;;4.86;100.00
75414;BME280;64758;52.122;5.404;2024-03-23T03:43:40;101117.78;;;4.83;100.00
75414;BME280;64758;52.122;5.404;2024-03-23T03:46:05;101112.69;;;4.72;100.00
75414;BME280;64758;52.122;5.404;2024-03-23T03:48:33;101110.06;;;4.63;100.00
75414;BME280;64758;52.122;5.404;2024-03-23T03:50:59;101112.84;;;4.61;100.00
75414;BME280;64758;52.122;5.404;2024-03-23T03:53:25;101102.59;;;4.58;100.00
75414;BME280;64758;52.122;5.404;2024-03-23T03:55:51;101108.41;;;4.43;100.00
75414;BME280;64758;52.122;5.404;2024-03-23T03:58:17;101113.03;;;4.31;100.00
75414;BME280;64758;52.122;5.404;2024-03-23T04:00:44;101106.22;;;4.29;100.00
75414;BME280;64758;52.122;5.404;2024-03-23T04:03:09;101101.25;;;4.26;100.00
75414;BME280;64758;52.122;5.404;2024-03-23T04:05:35;101109.00;;;4.08;100.00
75414;BME280;64758;52.122;5.404;2024-03-23T04:08:01;101101.25;;;4.07;100.00
75414;BME280;64758;52.122;5.404;2024-03-23T04:10:26;101091.44;;;4.09;100.00
75414;BME280;64758;52.122;5.404;2024-03-23T04:12:52;101097.94;;;4.14;100.00
75414;BME280;64758;52.122;5.404;2024-03-23T04:15:19;101094.47;;;4.14;100.00
75414;BME280;64758;52.122;5.404;2024-03-23T04:17:45;101090.06;;;4.14;100.00
75414;BME280;64758;52.122;5.404;2024-03-23T04:20:11;101085.91;;;4.12;100.00
75414;BME280;64758;52.122;5.404;2024-03-23T04:22:39;101087.84;;;4.10;100.00
75414;BME280;64758;52.122;5.404;2024-03-23T04:25:05;101077.88;;;4.04;100.00
75414;BME280;64758;52.122;5.404;2024-03-23T04:27:39;101087.00;;;4.00;100.00
75414;BME280;64758;52.122;5.404;2024-03-23T04:30:06;101091.03;;;3.94;100.00
75414;BME280;64758;52.122;5.404;2024-03-23T04:32:39;101082.56;;;3.91;100.00
75414;BME280;64758;52.122;5.404;2024-03-23T04:35:05;101090.47;;;3.91;100.00
75414;BME280;64758;52.122;5.404;2024-03-23T04:37:32;101082.44;;;3.92;100.00
75414;BME280;64758;52.122;5.404;2024-03-23T04:40:00;101086.31;;;3.88;100.00
75414;BME280;64758;52.122;5.404;2024-03-23T04:42:25;101090.03;;;3.86;100.00
75414;BME280;64758;52.122;5.404;2024-03-23T04:44:51;101082.16;;;3.86;100.00
75414;BME280;64758;52.122;5.404;2024-03-23T04:47:16;101087.13;;;3.89;100.00
75414;BME280;64758;52.122;5.404;2024-03-23T04:49:42;101093.09;;;3.91;100.00
75414;BME280;64758;52.122;5.404;2024-03-23T04:52:08;101092.13;;;3.92;100.00
75414;BME280;64758;52.122;5.404;2024-03-23T04:54:33;101090.19;;;3.94;100.00
75414;BME280;64758;52.122;5.404;2024-03-23T04:56:59;101081.34;;;3.95;100.00
75414;BME280;64758;52.122;5.404;2024-03-23T04:59:25;101083.28;;;3.93;100.00
75414;BME280;64758;52.122;5.404;2024-03-23T05:01:51;101080.91;;;3.90;100.00
75414;BME280;64758;52.122;5.404;2024-03-23T05:04:16;101079.25;;;3.89;100.00
75414;BME280;64758;52.122;5.404;2024-03-23T05:06:42;101082.16;;;3.86;100.00
75414;BME280;64758;52.122;5.404;2024-03-23T05:09:07;101082.16;;;3.86;100.00
75414;BME280;64758;52.122;5.404;2024-03-23T05:11:38;101083.13;;;3.85;100.00
75414;BME280;64758;52.122;5.404;2024-03-23T05:14:04;101088.09;;;3.88;100.00
75414;BME280;64758;52.122;5.404;2024-03-23T05:16:29;101084.94;;;3.84;100.00
75414;BME280;64758;52.122;5.404;2024-03-23T05:18:55;101084.41;;;3.81;100.00
75414;BME280;64758;52.122;5.404;2024-03-23T05:21:20;101088.00;;;3.80;100.00
75414;BME280;64758;52.122;5.404;2024-03-23T05:23:46;101087.16;;;3.79;100.00
75414;BME280;64758;52.122;5.404;2024-03-23T05:26:13;101087.31;;;3.78;100.00
75414;BME280;64758;52.122;5.404;2024-03-23T05:28:39;101083.28;;;3.74;100.00
75414;BME280;64758;52.122;5.404;2024-03-23T05:31:04;101086.88;;;3.73;100.00
75414;BME280;64758;52.122;5.404;2024-03-23T05:33:30;101095.44;;;3.75;100.00
75414;BME280;64758;52.122;5.404;2024-03-23T05:35:57;101092.81;;;3.75;100.00
75414;BME280;64758;52.122;5.404;2024-03-23T05:38:23;101086.88;;;3.73;100.00
75414;BME280;64758;52.122;5.404;2024-03-23T05:40:55;101093.78;;;3.74;100.00
75414;BME280;64758;52.122;5.404;2024-03-23T05:43:21;101093.25;;;3.80;100.00
75414;BME280;64758;52.122;5.404;2024-03-23T05:45:57;101096.94;;;3.87;100.00
75414;BME280;64758;52.122;5.404;2024-03-23T05:48:24;101087.72;;;3.92;100.00
75414;BME280;64758;52.122;5.404;2024-03-23T05:50:50;101101.09;;;3.99;100.00
75414;BME280;64758;52.122;5.404;2024-03-23T05:53:17;101088.97;;;4.07;100.00
75414;BME280;64758;52.122;5.404;2024-03-23T05:55:42;101075.53;;;4.10;100.00
75414;BME280;64758;52.122;5.404;2024-03-23T05:58:08;101083.84;;;4.15;100.00
75414;BME280;64758;52.122;5.404;2024-03-23T06:00:34;101077.47;;;4.18;100.00
75414;BME280;64758;52.122;5.404;2024-03-23T06:03:00;101083.41;;;4.20;100.00
75414;BME280;64758;52.122;5.404;2024-03-23T06:05:26;101080.50;;;4.23;100.00
75414;BME280;64758;52.122;5.404;2024-03-23T06:07:52;101081.59;;;4.30;100.00
75414;BME280;64758;52.122;5.404;2024-03-23T06:10:18;101078.84;;;4.31;100.00
75414;BME280;64758;52.122;5.404;2024-03-23T06:12:45;101087.69;;;4.30;100.00
75414;BME280;64758;52.122;5.404;2024-03-23T06:15:11;101086.84;;;4.30;100.00
75414;BME280;64758;52.122;5.404;2024-03-23T06:17:38;101086.72;;;4.31;100.00
75414;BME280;64758;52.122;5.404;2024-03-23T06:20:04;101085.88;;;4.31;100.00
75414;BME280;64758;52.122;5.404;2024-03-23T06:22:32;101091.00;;;4.32;100.00
75414;BME280;64758;52.122;5.404;2024-03-23T06:24:57;101081.19;;;4.34;100.00
75414;BME280;64758;52.122;5.404;2024-03-23T06:27:23;101080.75;;;4.39;100.00
75414;BME280;64758;52.122;5.404;2024-03-23T06:29:48;101078.97;;;4.39;100.00
75414;BME280;64758;52.122;5.404;2024-03-23T06:32:14;101072.59;;;4.42;100.00
75414;BME280;64758;52.122;5.404;2024-03-23T06:34:43;101069.81;;;4.43;100.00
75414;BME280;64758;52.122;5.404;2024-03-23T06:37:08;101062.47;;;4.47;100.00
75414;BME280;64758;52.122;5.404;2024-03-23T06:39:36;101074.09;;;4.54;100.00
75414;BME280;64758;52.122;5.404;2024-03-23T06:42:02;101068.53;;;4.57;100.00
75414;BME280;64758;52.122;5.404;2024-03-23T06:44:28;101072.53;;;4.61;100.00
75414;BME280;64758;52.122;5.404;2024-03-23T06:46:54;101072.13;;;4.65;100.00
75414;BME280;64758;52.122;5.404;2024-03-23T06:49:20;101063.78;;;4.70;100.00
75414;BME280;64758;52.122;5.404;2024-03-23T06:51:46;101072.78;;;4.77;100.00
75414;BME280;64758;52.122;5.404;2024-03-23T06:54:12;101077.34;;;4.84;100.00
75414;BME280;64758;52.122;5.404;2024-03-23T06:56:38;101063.72;;;4.89;100.00
75414;BME280;64758;52.122;5.404;2024-03-23T06:59:03;101068.97;;;4.98;100.00
75414;BME280;64758;52.122;5.404;2024-03-23T07:01:29;101063.94;;;5.04;100.00
75414;BME280;64758;52.122;5.404;2024-03-23T07:03:55;101066.50;;;5.14;100.00
75414;BME280;64758;52.122;5.404;2024-03-23T07:06:21;101076.34;;;5.21;100.00
75414;BME280;64758;52.122;5.404;2024-03-23T07:08:47;101073.13;;;5.27;100.00
75414;BME280;64758;52.122;5.404;2024-03-23T07:11:18;101060.03;;;5.35;100.00
75414;BME280;64758;52.122;5.404;2024-03-23T07:13:44;101060.13;;;5.43;100.00
75414;BME280;64758;52.122;5.404;2024-03-23T07:16:09;101060.06;;;5.53;100.00
75414;BME280;64758;52.122;5.404;2024-03-23T07:18:35;101062.94;;;5.59;100.00
75414;BME280;64758;52.122;5.404;2024-03-23T07:21:00;101060.59;;;5.74;100.00
75414;BME280;64758;52.122;5.404;2024-03-23T07:23:26;101060.41;;;5.85;100.00
75414;BME280;64758;52.122;5.404;2024-03-23T07:25:58;101067.59;;;5.92;100.00
75414;BME280;64758;52.122;5.404;2024-03-23T07:28:24;101063.38;;;5.99;100.00
75414;BME280;64758;52.122;5.404;2024-03-23T07:31:09;101066.59;;;6.11;100.00
75414;BME280;64758;52.122;5.404;2024-03-23T07:33:37;101065.53;;;6.21;100.00
75414;BME280;64758;52.122;5.404;2024-03-23T07:36:04;101052.56;;;6.28;100.00
75414;BME280;64758;52.122;5.404;2024-03-23T07:38:29;101067.47;;;6.36;100.00
75414;BME280;64758;52.122;5.404;2024-03-23T07:41:12;101061.75;;;6.49;100.00
75414;BME280;64758;52.122;5.404;2024-03-23T07:43:38;101068.50;;;6.69;100.00
75414;BME280;64758;52.122;5.404;2024-03-23T07:46:04;101057.66;;;6.80;100.00
75414;BME280;64758;52.122;5.404;2024-03-23T07:48:31;101067.16;;;6.90;100.00
75414;BME280;64758;52.122;5.404;2024-03-23T07:51:00;101060.41;;;6.96;100.00
75414;BME280;64758;52.122;5.404;2024-03-23T07:53:27;101070.00;;;7.05;100.00
75414;BME280;64758;52.122;5.404;2024-03-23T07:56:15;101078.31;;;7.18;100.00
75414;BME280;64758;52.122;5.404;2024-03-23T07:58:42;101063.47;;;7.17;100.00
75414;BME280;64758;52.122;5.404;2024-03-23T08:01:12;101073.88;;;7.18;100.00
75414;BME280;64758;52.122;5.404;2024-03-23T08:03:40;101075.41;;;7.29;100.00
75414;BME280;64758;52.122;5.404;2024-03-23T08:06:11;101067.81;;;7.34;100.00
75414;BME280;64758;52.122;5.404;2024-03-23T08:08:38;101059.09;;;7.33;100.00
75414;BME280;64758;52.122;5.404;2024-03-23T08:11:03;101064.53;;;7.40;100.00
75414;BME280;64758;52.122;5.404;2024-03-23T08:13:30;101046.59;;;7.51;100.00
75414;BME280;64758;52.122;5.404;2024-03-23T08:15:59;101049.75;;;7.62;100.00
75414;BME280;64758;52.122;5.404;2024-03-23T08:18:25;101056.53;;;7.65;100.00
75414;BME280;64758;52.122;5.404;2024-03-23T08:21:02;101057.03;;;7.76;100.00
75414;BME280;64758;52.122;5.404;2024-03-23T08:23:29;101050.44;;;7.80;100.00
75414;BME280;64758;52.122;5.404;2024-03-23T08:26:02;101050.78;;;7.85;100.00
75414;BME280;64758;52.122;5.404;2024-03-23T08:28:28;101057.41;;;7.97;100.00
75414;BME280;64758;52.122;5.404;2024-03-23T08:30:54;101069.47;;;8.00;100.00
75414;BME280;64758;52.122;5.404;2024-03-23T08:33:20;101056.75;;;8.11;100.00
75414;BME280;64758;52.122;5.404;2024-03-23T08:35:56;101068.03;;;8.21;99.78
75414;BME280;64758;52.122;5.404;2024-03-23T08:38:23;101060.75;;;8.23;97.55
75414;BME280;64758;52.122;5.404;2024-03-23T08:41:05;101062.88;;;8.20;96.00
75414;BME280;64758;52.122;5.404;2024-03-23T08:43:33;101063.06;;;8.18;96.28
75414;BME280;64758;52.122;5.404;2024-03-23T08:48:31;101068.84;;;8.38;95.21
75414;BME280;64758;52.122;5.404;2024-03-23T08:51:00;101055.78;;;8.52;95.65
75414;BME280;64758;52.122;5.404;2024-03-23T08:53:28;101060.41;;;8.58;94.14
75414;BME280;64758;52.122;5.404;2024-03-23T08:55:56;101063.16;;;8.73;93.42
75414;BME280;64758;52.122;5.404;2024-03-23T08:58:23;101054.53;;;8.86;93.47
75414;BME280;64758;52.122;5.404;2024-03-23T09:00:52;101049.50;;;9.07;92.84
75414;BME280;64758;52.122;5.404;2024-03-23T09:03:18;101045.59;;;9.26;91.47
75414;BME280;64758;52.122;5.404;2024-03-23T09:05:44;101039.72;;;9.46;91.71
75414;BME280;64758;52.122;5.404;2024-03-23T09:08:09;101036.13;;;9.62;88.49
75414;BME280;64758;52.122;5.404;2024-03-23T09:10:39;101032.47;;;9.63;85.41
75414;BME280;64758;52.122;5.404;2024-03-23T09:13:05;101055.94;;;9.74;87.12
75414;BME280;64758;52.122;5.404;2024-03-23T09:15:36;101056.53;;;9.84;85.99
75414;BME280;64758;52.122;5.404;2024-03-23T09:18:02;101055.22;;;9.57;86.71
75414;BME280;64758;52.122;5.404;2024-03-23T09:20:28;101057.97;;;8.95;90.50
75414;BME280;64758;52.122;5.404;2024-03-23T09:22:54;101059.75;;;8.40;93.16
75414;BME280;64758;52.122;5.404;2024-03-23T09:25:20;101059.53;;;7.94;97.57
75414;BME280;64758;52.122;5.404;2024-03-23T09:27:46;101059.50;;;7.70;100.00
75414;BME280;64758;52.122;5.404;2024-03-23T09:30:13;101046.91;;;7.48;100.00
75414;BME280;64758;52.122;5.404;2024-03-23T09:32:41;101048.34;;;7.35;100.00
75414;BME280;64758;52.122;5.404;2024-03-23T09:35:07;101048.31;;;7.27;100.00
75414;BME280;64758;52.122;5.404;2024-03-23T09:37:32;101044.69;;;7.28;100.00
75414;BME280;64758;52.122;5.404;2024-03-23T09:39:58;101057.25;;;7.34;100.00
75414;BME280;64758;52.122;5.404;2024-03-23T09:42:24;101050.19;;;7.34;100.00
75414;BME280;64758;52.122;5.404;2024-03-23T09:44:51;101058.06;;;7.26;100.00
75414;BME280;64758;52.122;5.404;2024-03-23T09:47:17;101074.47;;;7.04;100.00
75414;BME280;64758;52.122;5.404;2024-03-23T09:49:43;101065.84;;;6.69;100.00
75414;BME280;64758;52.122;5.404;2024-03-23T09:52:10;101059.28;;;6.47;100.00
75414;BME280;64758;52.122;5.404;2024-03-23T09:54:36;101054.44;;;6.35;100.00
75414;BME280;64758;52.122;5.404;2024-03-23T09:57:01;101049.59;;;6.30;100.00
75414;BME280;64758;52.122;5.404;2024-03-23T09:59:29;101063.41;;;6.50;100.00
75414;BME280;64758;52.122;5.404;2024-03-23T10:01:55;101036.56;;;6.80;100.00
75414;BME280;64758;52.122;5.404;2024-03-23T10:04:41;101041.19;;;7.19;100.00
75414;BME280;64758;52.122;5.404;2024-03-23T10:07:19;101028.41;;;7.48;100.00
75414;BME280;64758;52.122;5.404;2024-03-23T10:09:45;101033.91;;;7.78;100.00
75414;BME280;64758;52.122;5.404;2024-03-23T10:12:14;101025.81;;;8.12;100.00
75414;BME280;64758;52.122;5.404;2024-03-23T10:14:40;101034.41;;;8.46;100.00
75414;BME280;64758;52.122;5.404;2024-03-23T10:17:21;101021.31;;;8.76;100.00
75414;BME280;64758;52.122;5.404;2024-03-23T10:19:55;101018.94;;;8.89;99.58
75414;BME280;64758;52.122;5.404;2024-03-23T10:22:23;101024.50;;;9.02;94.16
75414;BME280;64758;52.122;5.404;2024-03-23T10:24:50;101034.84;;;8.81;91.13
75414;BME280;64758;52.122;5.404;2024-03-23T10:27:17;101039.38;;;8.49;91.45
75414;BME280;64758;52.122;5.404;2024-03-23T10:29:45;101039.91;;;8.44;93.97
75414;BME280;64758;52.122;5.404;2024-03-23T10:32:12;101031.94;;;8.60;93.87
75414;BME280;64758;52.122;5.404;2024-03-23T10:34:38;101025.56;;;8.85;93.53
75414;BME280;64758;52.122;5.404;2024-03-23T10:37:05;101008.78;;;9.00;90.96
75414;BME280;64758;52.122;5.404;2024-03-23T10:39:38;101031.41;;;9.11;87.93
75414;BME280;64758;52.122;5.404;2024-03-23T10:42:05;101030.19;;;9.29;88.07
75414;BME280;64758;52.122;5.404;2024-03-23T10:44:32;101022.53;;;9.34;87.25
75414;BME280;64758;52.122;5.404;2024-03-23T10:46:58;101032.59;;;9.39;86.55
75414;BME280;64758;52.122;5.404;2024-03-23T10:49:32;101014.75;;;9.33;86.01
75414;BME280;64758;52.122;5.404;2024-03-23T10:52:02;101045.97;;;9.15;86.99
75414;BME280;64758;52.122;5.404;2024-03-23T10:54:29;101058.16;;;8.85;90.36
75414;BME280;64758;52.122;5.404;2024-03-23T10:59:31;101048.44;;;7.74;99.28
75414;BME280;64758;52.122;5.404;2024-03-23T11:01:59;101045.06;;;7.41;100.00
75414;BME280;64758;52.122;5.404;2024-03-23T11:04:37;101045.69;;;7.27;100.00
75414;BME280;64758;52.122;5.404;2024-03-23T11:09:53;101036.53;;;7.62;100.00
75414;BME280;64758;52.122;5.404;2024-03-23T11:15:01;101032.09;;;8.59;97.26
75414;BME280;64758;52.122;5.404;2024-03-23T11:17:27;101010.03;;;8.82;96.97
75414;BME280;64758;52.122;5.404;2024-03-23T11:19:57;101003.16;;;9.03;95.15
75414;BME280;64758;52.122;5.404;2024-03-23T11:22:40;101021.88;;;8.94;92.79
75414;BME280;64758;52.122;5.404;2024-03-23T11:27:39;101033.59;;;8.61;92.77
75414;BME280;64758;52.122;5.404;2024-03-23T11:30:31;101020.66;;;8.66;91.97
75414;BME280;64758;52.122;5.404;2024-03-23T11:32:57;101025.41;;;8.79;89.99
75414;BME280;64758;52.122;5.404;2024-03-23T11:40:48;101016.66;;;9.47;83.54
75414;BME280;64758;52.122;5.404;2024-03-23T11:43:18;100999.34;;;9.59;84.81
75414;BME280;64758;52.122;5.404;2024-03-23T11:45:51;101018.44;;;9.77;85.10
75414;BME280;64758;52.122;5.404;2024-03-23T11:48:19;100998.81;;;9.86;81.24
75414;BME280;64758;52.122;5.404;2024-03-23T11:50:47;100990.09;;;10.00;80.93
75414;BME280;64758;52.122;5.404;2024-03-23T11:53:24;100998.81;;;10.30;77.13
75414;BME280;64758;52.122;5.404;2024-03-23T11:55:55;101000.34;;;10.25;74.05
75414;BME280;64758;52.122;5.404;2024-03-23T11:58:22;101002.91;;;9.74;78.10
75414;BME280;64758;52.122;5.404;2024-03-23T12:00:56;100995.16;;;9.42;76.73
75414;BME280;64758;52.122;5.404;2024-03-23T12:03:23;101002.84;;;9.29;79.46
75414;BME280;64758;52.122;5.404;2024-03-23T12:05:54;101013.75;;;9.34;77.42
75414;BME280;64758;52.122;5.404;2024-03-23T12:08:23;100993.16;;;9.44;78.26
75414;BME280;64758;52.122;5.404;2024-03-23T12:13:22;100995.59;;;9.23;79.96
75414;BME280;64758;52.122;5.404;2024-03-23T12:15:50;101005.25;;;9.08;80.36
75414;BME280;64758;52.122;5.404;2024-03-23T12:18:17;101002.41;;;8.87;79.25
75414;BME280;64758;52.122;5.404;2024-03-23T12:20:43;100994.28;;;8.81;80.84
75414;BME280;64758;52.122;5.404;2024-03-23T12:23:10;100981.38;;;9.16;79.76
75414;BME280;64758;52.122;5.404;2024-03-23T12:25:40;100971.19;;;9.58;77.88
75414;BME280;64758;52.122;5.404;2024-03-23T12:28:07;100970.78;;;9.91;77.31
75414;BME280;64758;52.122;5.404;2024-03-23T12:30:39;100969.84;;;10.21;77.65
75414;BME280;64758;52.122;5.404;2024-03-23T12:33:05;100960.16;;;10.28;74.50
75414;BME280;64758;52.122;5.404;2024-03-23T12:35:31;100964.94;;;10.18;73.78
75414;BME280;64758;52.122;5.404;2024-03-23T12:37:57;100964.44;;;10.14;75.22
75414;BME280;64758;52.122;5.404;2024-03-23T12:40:23;100969.22;;;9.97;72.76
75414;BME280;64758;52.122;5.404;2024-03-23T12:42:49;100972.63;;;9.68;75.51
75414;BME280;64758;52.122;5.404;2024-03-23T12:45:15;100964.59;;;9.54;74.92
75414;BME280;64758;52.122;5.404;2024-03-23T12:47:40;100967.47;;;9.67;74.49
75414;BME280;64758;52.122;5.404;2024-03-23T12:50:06;100974.13;;;9.63;73.46
75414;BME280;64758;52.122;5.404;2024-03-23T12:52:33;100967.94;;;9.48;72.33
75414;BME280;64758;52.122;5.404;2024-03-23T12:54:59;100973.34;;;9.32;78.06
75414;BME280;64758;52.122;5.404;2024-03-23T12:57:25;100963.28;;;9.50;77.87
75414;BME280;64758;52.122;5.404;2024-03-23T12:59:51;100960.69;;;9.87;75.11
75414;BME280;64758;52.122;5.404;2024-03-23T13:02:21;100951.50;;;9.97;75.66
75414;BME280;64758;52.122;5.404;2024-03-23T13:04:49;100965.72;;;10.18;74.85
75414;BME280;64758;52.122;5.404;2024-03-23T13:07:16;100977.94;;;10.27;74.33
75414;BME280;64758;52.122;5.404;2024-03-23T13:09:41;100963.75;;;9.76;72.03
75414;BME280;64758;52.122;5.404;2024-03-23T13:12:07;100962.34;;;9.43;74.03
75414;BME280;64758;52.122;5.404;2024-03-23T13:14:33;100960.63;;;9.27;73.73
75414;BME280;64758;52.122;5.404;2024-03-23T13:16:59;100962.38;;;9.35;73.53
75414;BME280;64758;52.122;5.404;2024-03-23T13:19:25;100970.81;;;9.61;72.82
75414;BME280;64758;52.122;5.404;2024-03-23T13:21:57;100957.56;;;9.61;70.31
75414;BME280;64758;52.122;5.404;2024-03-23T13:24:23;100977.25;;;9.44;70.38
75414;BME280;64758;52.122;5.404;2024-03-23T13:26:50;101007.28;;;8.98;75.39
75414;BME280;64758;52.122;5.404;2024-03-23T13:29:17;101025.19;;;8.34;76.76
75414;BME280;64758;52.122;5.404;2024-03-23T13:31:42;101010.13;;;7.78;80.47
75414;BME280;64758;52.122;5.404;2024-03-23T13:34:08;100995.72;;;7.49;83.96
75414;BME280;64758;52.122;5.404;2024-03-23T13:36:34;100988.59;;;7.50;83.58
75414;BME280;64758;52.122;5.404;2024-03-23T13:39:01;100979.38;;;7.61;83.92
75414;BME280;64758;52.122;5.404;2024-03-23T13:41:31;100983.69;;;7.86;86.09
75414;BME280;64758;52.122;5.404;2024-03-23T13:43:57;100972.13;;;8.19;82.99
75414;BME280;64758;52.122;5.404;2024-03-23T13:46:23;100974.38;;;8.54;81.83
75414;BME280;64758;52.122;5.404;2024-03-23T13:48:48;100953.06;;;8.86;79.50
75414;BME280;64758;52.122;5.404;2024-03-23T13:51:14;100962.25;;;8.98;79.31
75414;BME280;64758;52.122;5.404;2024-03-23T13:53:39;100955.81;;;9.00;77.42
75414;BME280;64758;52.122;5.404;2024-03-23T13:56:05;100965.91;;;8.97;77.04
75414;BME280;64758;52.122;5.404;2024-03-23T13:58:31;100966.75;;;8.97;76.47
75414;BME280;64758;52.122;5.404;2024-03-23T14:00:57;100960.88;;;9.10;74.88
75414;BME280;64758;52.122;5.404;2024-03-23T14:03:23;100949.47;;;9.09;77.26
75414;BME280;64758;52.122;5.404;2024-03-23T14:05:49;100945.53;;;9.28;76.88